sensor_id;sensor_type;location;lat;lon;timestamp;temperature;humidity
7378;DHT22;3730;50.856;12.776;2023-04-03T00:02:07;3.80;92.30
7378;DHT22;3730;50.856;12.776;2023-04-03T00:04:33;3.80;92.60
7378;DHT22;3730;50.856;12.776;2023-04-03T00:06:58;3.60;92.30
7378;DHT22;3730;50.856;12.776;2023-04-03T00:09:24;3.80;92.40
7378;DHT22;3730;50.856;12.776;2023-04-03T00:11:49;4.00;92.80
7378;DHT22;3730;50.856;12.776;2023-04-03T00:14:15;3.60;92.60
7378;DHT22;3730;50.856;12.776;2023-04-03T00:16:41;4.90;93.40
7378;DHT22;3730;50.856;12.776;2023-04-03T00:19:06;5.10;93.10
7378;DHT22;3730;50.856;12.776;2023-04-03T00:21:32;3.50;92.00
7378;DHT22;3730;50.856;12.776;2023-04-03T00:23:58;4.40;92.30
7378;DHT22;3730;50.856;12.776;2023-04-03T00:26:23;3.40;91.20
7378;DHT22;3730;50.856;12.776;2023-04-03T00:28:49;3.30;91.60
7378;DHT22;3730;50.856;12.776;2023-04-03T00:31:15;3.30;91.90
7378;DHT22;3730;50.856;12.776;2023-04-03T00:33:41;4.20;92.60
7378;DHT22;3730;50.856;12.776;2023-04-03T00:36:09;3.50;91.20
7378;DHT22;3730;50.856;12.776;2023-04-03T00:38:35;3.20;91.40
7378;DHT22;3730;50.856;12.776;2023-04-03T00:41:00;3.20;91.70
7378;DHT22;3730;50.856;12.776;2023-04-03T00:43:27;4.80;92.40
7378;DHT22;3730;50.856;12.776;2023-04-03T00:45:57;4.50;92.40
7378;DHT22;3730;50.856;12.776;2023-04-03T00:48:45;4.10;92.90
7378;DHT22;3730;50.856;12.776;2023-04-03T00:51:14;3.10;92.60
7378;DHT22;3730;50.856;12.776;2023-04-03T00:53:46;3.10;92.90
7378;DHT22;3730;50.856;12.776;2023-04-03T00:56:14;4.60;93.40
7378;DHT22;3730;50.856;12.776;2023-04-03T00:58:48;4.20;93.20
7378;DHT22;3730;50.856;12.776;2023-04-03T01:01:21;3.00;92.70
7378;DHT22;3730;50.856;12.776;2023-04-03T01:06:16;2.90;93.30
7378;DHT22;3730;50.856;12.776;2023-04-03T01:08:42;2.90;93.80
7378;DHT22;3730;50.856;12.776;2023-04-03T01:11:08;2.90;93.40
7378;DHT22;3730;50.856;12.776;2023-04-03T01:13:34;2.80;92.10
7378;DHT22;3730;50.856;12.776;2023-04-03T01:16:04;2.70;93.40
7378;DHT22;3730;50.856;12.776;2023-04-03T01:18:31;2.90;93.30
7378;DHT22;3730;50.856;12.776;2023-04-03T01:21:36;2.70;93.10
7378;DHT22;3730;50.856;12.776;2023-04-03T01:26:45;2.70;93.20
7378;DHT22;3730;50.856;12.776;2023-04-03T01:29:10;2.70;93.00
7378;DHT22;3730;50.856;12.776;2023-04-03T01:34:17;2.60;93.00
7378;DHT22;3730;50.856;12.776;2023-04-03T01:36:43;2.60;92.70
7378;DHT22;3730;50.856;12.776;2023-04-03T01:39:09;2.40;93.20
7378;DHT22;3730;50.856;12.776;2023-04-03T01:44:00;2.50;92.00
7378;DHT22;3730;50.856;12.776;2023-04-03T01:46:26;2.40;93.10
7378;DHT22;3730;50.856;12.776;2023-04-03T01:48:52;2.40;92.40
7378;DHT22;3730;50.856;12.776;2023-04-03T01:51:17;2.40;94.00
7378;DHT22;3730;50.856;12.776;2023-04-03T01:53:43;2.50;93.40
7378;DHT22;3730;50.856;12.776;2023-04-03T01:56:09;2.60;94.50
7378;DHT22;3730;50.856;12.776;2023-04-03T01:58:35;2.60;94.70
7378;DHT22;3730;50.856;12.776;2023-04-03T02:01:01;2.60;94.10
7378;DHT22;3730;50.856;12.776;2023-04-03T02:03:27;2.50;93.80
7378;DHT22;3730;50.856;12.776;2023-04-03T02:05:52;2.50;93.10
7378;DHT22;3730;50.856;12.776;2023-04-03T02:08:18;2.10;92.80
7378;DHT22;3730;50.856;12.776;2023-04-03T02:10:48;2.40;91.40
7378;DHT22;3730;50.856;12.776;2023-04-03T02:13:14;2.50;93.00
7378;DHT22;3730;50.856;12.776;2023-04-03T02:15:40;2.40;92.90
7378;DHT22;3730;50.856;12.776;2023-04-03T02:18:07;2.40;92.90
7378;DHT22;3730;50.856;12.776;2023-04-03T02:20:32;2.40;93.10
7378;DHT22;3730;50.856;12.776;2023-04-03T02:22:59;2.40;93.80
7378;DHT22;3730;50.856;12.776;2023-04-03T02:25:24;2.20;93.60
7378;DHT22;3730;50.856;12.776;2023-04-03T02:27:50;2.30;93.30
7378;DHT22;3730;50.856;12.776;2023-04-03T02:32:43;2.40;93.60
7378;DHT22;3730;50.856;12.776;2023-04-03T02:35:10;2.40;93.90
7378;DHT22;3730;50.856;12.776;2023-04-03T02:37:35;2.40;93.90
7378;DHT22;3730;50.856;12.776;2023-04-03T02:40:02;2.20;93.70
7378;DHT22;3730;50.856;12.776;2023-04-03T02:49:46;2.20;94.50
7378;DHT22;3730;50.856;12.776;2023-04-03T02:52:13;2.20;94.50
7378;DHT22;3730;50.856;12.776;2023-04-03T02:54:40;2.10;94.60
7378;DHT22;3730;50.856;12.776;2023-04-03T02:57:06;2.20;94.50
7378;DHT22;3730;50.856;12.776;2023-04-03T03:02:00;1.80;94.70
7378;DHT22;3730;50.856;12.776;2023-04-03T03:04:25;2.00;95.10
7378;DHT22;3730;50.856;12.776;2023-04-03T03:06:51;1.90;95.50
7378;DHT22;3730;50.856;12.776;2023-04-03T03:09:17;1.90;95.00
7378;DHT22;3730;50.856;12.776;2023-04-03T03:14:09;1.80;96.10
7378;DHT22;3730;50.856;12.776;2023-04-03T03:16:35;1.90;96.30
7378;DHT22;3730;50.856;12.776;2023-04-03T03:19:01;2.30;96.80
7378;DHT22;3730;50.856;12.776;2023-04-03T03:21:27;1.90;96.70
7378;DHT22;3730;50.856;12.776;2023-04-03T03:23:52;1.90;96.30
7378;DHT22;3730;50.856;12.776;2023-04-03T08:54:56;2.50;72.60
7378;DHT22;3730;50.856;12.776;2023-04-03T08:57:43;2.60;66.60
7378;DHT22;3730;50.856;12.776;2023-04-03T09:00:18;2.70;71.40
7378;DHT22;3730;50.856;12.776;2023-04-03T09:02:46;2.80;67.30
7378;DHT22;3730;50.856;12.776;2023-04-03T09:05:15;2.60;68.40
7378;DHT22;3730;50.856;12.776;2023-04-03T09:07:57;2.60;69.70
7378;DHT22;3730;50.856;12.776;2023-04-03T09:10:29;2.70;69.60
7378;DHT22;3730;50.856;12.776;2023-04-03T09:13:04;2.80;67.40
7378;DHT22;3730;50.856;12.776;2023-04-03T09:15:32;2.80;65.80
7378;DHT22;3730;50.856;12.776;2023-04-03T09:22:57;2.80;58.00
7378;DHT22;3730;50.856;12.776;2023-04-03T09:25:27;2.70;60.50
7378;DHT22;3730;50.856;12.776;2023-04-03T09:27:55;2.80;58.40
7378;DHT22;3730;50.856;12.776;2023-04-03T09:30:24;2.80;58.00
7378;DHT22;3730;50.856;12.776;2023-04-03T09:32:54;2.90;54.20
7378;DHT22;3730;50.856;12.776;2023-04-03T09:35:24;2.90;54.50
7378;DHT22;3730;50.856;12.776;2023-04-03T09:38:21;2.80;55.10
7378;DHT22;3730;50.856;12.776;2023-04-03T09:41:16;3.10;55.90
7378;DHT22;3730;50.856;12.776;2023-04-03T09:43:52;3.20;55.40
7378;DHT22;3730;50.856;12.776;2023-04-03T09:46:33;3.00;50.60
7378;DHT22;3730;50.856;12.776;2023-04-03T09:49:04;3.10;54.30
7378;DHT22;3730;50.856;12.776;2023-04-03T09:51:31;3.10;54.90
7378;DHT22;3730;50.856;12.776;2023-04-03T10:19:48;3.70;37.40
7378;DHT22;3730;50.856;12.776;2023-04-03T10:27:16;3.90;40.70
7378;DHT22;3730;50.856;12.776;2023-04-03T10:29:52;3.90;39.90
7378;DHT22;3730;50.856;12.776;2023-04-03T10:36:02;3.80;39.80
7378;DHT22;3730;50.856;12.776;2023-04-03T10:38:51;4.00;39.70
7378;DHT22;3730;50.856;12.776;2023-04-03T10:47:20;4.10;34.10
7378;DHT22;3730;50.856;12.776;2023-04-03T10:50:20;4.10;35.90
7378;DHT22;3730;50.856;12.776;2023-04-03T10:53:07;4.10;34.40
7378;DHT22;3730;50.856;12.776;2023-04-03T10:58:43;3.70;33.80
7378;DHT22;3730;50.856;12.776;2023-04-03T11:01:14;4.20;31.80
7378;DHT22;3730;50.856;12.776;2023-04-03T11:03:45;4.30;31.00
7378;DHT22;3730;50.856;12.776;2023-04-03T11:06:15;4.70;32.60
7378;DHT22;3730;50.856;12.776;2023-04-03T11:09:00;4.60;32.90
7378;DHT22;3730;50.856;12.776;2023-04-03T16:55:24;4.10;1.00
7378;DHT22;3730;50.856;12.776;2023-04-03T16:57:50;4.10;1.00
7378;DHT22;3730;50.856;12.776;2023-04-03T17:05:08;4.00;1.00
7378;DHT22;3730;50.856;12.776;2023-04-03T17:12:26;3.80;1.00
7378;DHT22;3730;50.856;12.776;2023-04-03T17:14:51;4.10;1.00
7378;DHT22;3730;50.856;12.776;2023-04-03T17:17:22;4.00;1.00
7378;DHT22;3730;50.856;12.776;2023-04-03T17:19:49;3.90;1.00
7378;DHT22;3730;50.856;12.776;2023-04-03T17:27:07;3.70;1.00
7378;DHT22;3730;50.856;12.776;2023-04-03T17:29:33;3.90;1.00
7378;DHT22;3730;50.856;12.776;2023-04-03T17:31:59;3.80;1.00
7378;DHT22;3730;50.856;12.776;2023-04-03T17:34:25;3.60;1.00
7378;DHT22;3730;50.856;12.776;2023-04-03T17:39:16;3.60;1.00
7378;DHT22;3730;50.856;12.776;2023-04-03T17:41:42;3.60;1.00
7378;DHT22;3730;50.856;12.776;2023-04-03T17:44:10;3.50;1.00
7378;DHT22;3730;50.856;12.776;2023-04-03T17:46:36;3.50;1.00
7378;DHT22;3730;50.856;12.776;2023-04-03T17:49:02;3.50;1.00
7378;DHT22;3730;50.856;12.776;2023-04-03T17:51:29;3.30;1.00
7378;DHT22;3730;50.856;12.776;2023-04-03T17:53:55;3.40;1.00
7378;DHT22;3730;50.856;12.776;2023-04-03T17:56:25;3.30;1.00
7378;DHT22;3730;50.856;12.776;2023-04-03T17:58:52;3.40;1.00
7378;DHT22;3730;50.856;12.776;2023-04-03T18:01:21;3.40;1.00
7378;DHT22;3730;50.856;12.776;2023-04-03T18:03:48;3.50;1.00
7378;DHT22;3730;50.856;12.776;2023-04-03T18:06:17;3.20;1.00
7378;DHT22;3730;50.856;12.776;2023-04-03T18:09:07;3.60;1.00
7378;DHT22;3730;50.856;12.776;2023-04-03T18:11:34;3.50;1.00
7378;DHT22;3730;50.856;12.776;2023-04-03T18:14:01;3.60;1.00
7378;DHT22;3730;50.856;12.776;2023-04-03T18:16:27;3.40;1.00
7378;DHT22;3730;50.856;12.776;2023-04-03T18:18:53;3.60;1.00
7378;DHT22;3730;50.856;12.776;2023-04-03T18:21:19;3.30;1.00
7378;DHT22;3730;50.856;12.776;2023-04-03T18:23:49;3.50;1.00
7378;DHT22;3730;50.856;12.776;2023-04-03T18:26:15;3.60;1.00
7378;DHT22;3730;50.856;12.776;2023-04-03T18:28:43;3.50;1.00
7378;DHT22;3730;50.856;12.776;2023-04-03T18:31:11;3.60;1.00
7378;DHT22;3730;50.856;12.776;2023-04-03T18:33:40;3.60;1.00
7378;DHT22;3730;50.856;12.776;2023-04-03T18:36:06;3.60;1.00
7378;DHT22;3730;50.856;12.776;2023-04-03T18:40:58;3.50;1.00
7378;DHT22;3730;50.856;12.776;2023-04-03T18:43:25;3.50;1.00
7378;DHT22;3730;50.856;12.776;2023-04-03T18:45:51;3.40;1.00
7378;DHT22;3730;50.856;12.776;2023-04-03T18:48:17;3.50;1.00
7378;DHT22;3730;50.856;12.776;2023-04-03T18:50:43;3.50;1.00
7378;DHT22;3730;50.856;12.776;2023-04-03T18:53:10;3.30;1.00
7378;DHT22;3730;50.856;12.776;2023-04-03T18:55:36;3.40;1.00
7378;DHT22;3730;50.856;12.776;2023-04-03T19:00:27;3.70;1.00
7378;DHT22;3730;50.856;12.776;2023-04-03T19:02:53;3.30;1.00
7378;DHT22;3730;50.856;12.776;2023-04-03T19:05:19;3.10;1.00
7378;DHT22;3730;50.856;12.776;2023-04-03T19:07:47;3.20;1.00
7378;DHT22;3730;50.856;12.776;2023-04-03T19:10:15;2.90;1.00
7378;DHT22;3730;50.856;12.776;2023-04-03T19:12:46;3.10;1.00
7378;DHT22;3730;50.856;12.776;2023-04-03T19:15:13;3.00;1.00
7378;DHT22;3730;50.856;12.776;2023-04-03T19:20:06;3.00;1.00
7378;DHT22;3730;50.856;12.776;2023-04-03T19:22:32;3.20;1.00
7378;DHT22;3730;50.856;12.776;2023-04-03T19:24:57;3.10;1.00
7378;DHT22;3730;50.856;12.776;2023-04-03T19:27:23;3.10;1.00
7378;DHT22;3730;50.856;12.776;2023-04-03T19:29:49;3.20;1.00
7378;DHT22;3730;50.856;12.776;2023-04-03T19:32:14;3.20;1.00
7378;DHT22;3730;50.856;12.776;2023-04-03T19:34:40;3.20;1.00
7378;DHT22;3730;50.856;12.776;2023-04-03T19:37:06;3.10;1.10
7378;DHT22;3730;50.856;12.776;2023-04-03T19:39:32;3.20;1.00
7378;DHT22;3730;50.856;12.776;2023-04-03T19:42:00;3.30;1.30
7378;DHT22;3730;50.856;12.776;2023-04-03T19:44:28;3.50;2.00
7378;DHT22;3730;50.856;12.776;2023-04-03T19:46:57;3.10;2.40
7378;DHT22;3730;50.856;12.776;2023-04-03T19:49:23;3.10;2.70
7378;DHT22;3730;50.856;12.776;2023-04-03T19:51:49;3.20;3.00
7378;DHT22;3730;50.856;12.776;2023-04-03T19:54:15;3.30;2.60
7378;DHT22;3730;50.856;12.776;2023-04-03T19:56:41;3.30;3.30
7378;DHT22;3730;50.856;12.776;2023-04-03T19:59:06;3.30;3.80
7378;DHT22;3730;50.856;12.776;2023-04-03T20:01:32;3.40;4.10
7378;DHT22;3730;50.856;12.776;2023-04-03T20:06:25;3.20;4.00
7378;DHT22;3730;50.856;12.776;2023-04-03T20:11:18;3.30;2.00
7378;DHT22;3730;50.856;12.776;2023-04-03T20:16:10;3.10;5.60
7378;DHT22;3730;50.856;12.776;2023-04-03T20:18:35;3.50;6.30
7378;DHT22;3730;50.856;12.776;2023-04-03T20:21:05;3.50;6.20
7378;DHT22;3730;50.856;12.776;2023-04-03T20:23:32;3.40;5.90
7378;DHT22;3730;50.856;12.776;2023-04-03T20:25:59;3.20;5.80
7378;DHT22;3730;50.856;12.776;2023-04-03T20:28:25;3.60;6.40
7378;DHT22;3730;50.856;12.776;2023-04-03T20:30:52;3.40;6.70
7378;DHT22;3730;50.856;12.776;2023-04-03T20:33:21;3.40;4.40
7378;DHT22;3730;50.856;12.776;2023-04-03T20:35:48;3.50;7.20
7378;DHT22;3730;50.856;12.776;2023-04-03T20:38:15;3.40;4.60
7378;DHT22;3730;50.856;12.776;2023-04-03T20:43:07;4.20;5.20
7378;DHT22;3730;50.856;12.776;2023-04-03T20:45:34;3.30;7.30
7378;DHT22;3730;50.856;12.776;2023-04-03T20:48:00;3.40;7.50
7378;DHT22;3730;50.856;12.776;2023-04-03T20:50:27;3.50;5.80
7378;DHT22;3730;50.856;12.776;2023-04-03T20:52:54;3.50;7.50
7378;DHT22;3730;50.856;12.776;2023-04-03T20:55:20;3.20;8.00
7378;DHT22;3730;50.856;12.776;2023-04-03T20:57:47;3.40;8.60
7378;DHT22;3730;50.856;12.776;2023-04-03T21:00:13;3.50;8.40
7378;DHT22;3730;50.856;12.776;2023-04-03T21:02:40;3.30;8.70
7378;DHT22;3730;50.856;12.776;2023-04-03T21:05:07;3.50;8.60
7378;DHT22;3730;50.856;12.776;2023-04-03T21:19:19;3.50;10.60
7378;DHT22;3730;50.856;12.776;2023-04-03T21:21:45;3.40;10.80
7378;DHT22;3730;50.856;12.776;2023-04-03T21:24:13;3.50;11.40
7378;DHT22;3730;50.856;12.776;2023-04-03T21:29:06;3.50;11.50
7378;DHT22;3730;50.856;12.776;2023-04-03T21:31:55;3.50;9.30
7378;DHT22;3730;50.856;12.776;2023-04-03T21:34:23;3.50;12.40
7378;DHT22;3730;50.856;12.776;2023-04-03T21:36:53;3.50;11.60
7378;DHT22;3730;50.856;12.776;2023-04-03T21:39:19;3.50;11.20
7378;DHT22;3730;50.856;12.776;2023-04-03T21:44:11;3.40;14.30
7378;DHT22;3730;50.856;12.776;2023-04-03T21:46:37;3.50;14.10
7378;DHT22;3730;50.856;12.776;2023-04-03T21:49:03;3.10;14.40
7378;DHT22;3730;50.856;12.776;2023-04-03T21:53:56;3.50;15.10
7378;DHT22;3730;50.856;12.776;2023-04-03T21:58:49;3.50;16.00
7378;DHT22;3730;50.856;12.776;2023-04-03T22:01:15;3.60;16.30
7378;DHT22;3730;50.856;12.776;2023-04-03T22:03:42;3.30;16.00
7378;DHT22;3730;50.856;12.776;2023-04-03T22:06:09;3.50;16.30
7378;DHT22;3730;50.856;12.776;2023-04-03T22:08:35;3.60;14.40
7378;DHT22;3730;50.856;12.776;2023-04-03T22:11:06;3.30;16.60
7378;DHT22;3730;50.856;12.776;2023-04-03T22:13:33;3.40;17.10
7378;DHT22;3730;50.856;12.776;2023-04-03T22:15:59;3.60;17.10
7378;DHT22;3730;50.856;12.776;2023-04-03T22:18:26;3.60;17.60
7378;DHT22;3730;50.856;12.776;2023-04-03T22:20:51;3.20;16.70
7378;DHT22;3730;50.856;12.776;2023-04-03T22:23:21;3.50;18.10
7378;DHT22;3730;50.856;12.776;2023-04-03T22:25:57;3.40;18.60
7378;DHT22;3730;50.856;12.776;2023-04-03T22:28:23;3.40;18.70
7378;DHT22;3730;50.856;12.776;2023-04-03T22:30:48;3.50;19.40
7378;DHT22;3730;50.856;12.776;2023-04-03T22:33:14;3.50;19.60
7378;DHT22;3730;50.856;12.776;2023-04-03T22:35:49;3.40;17.40
7378;DHT22;3730;50.856;12.776;2023-04-03T22:38:15;3.50;19.80
7378;DHT22;3730;50.856;12.776;2023-04-03T22:40:42;3.80;20.30
7378;DHT22;3730;50.856;12.776;2023-04-03T22:43:08;3.40;20.50
7378;DHT22;3730;50.856;12.776;2023-04-03T22:45:34;3.30;20.10
7378;DHT22;3730;50.856;12.776;2023-04-03T22:47:59;3.50;20.80
7378;DHT22;3730;50.856;12.776;2023-04-03T22:50:25;3.40;20.80
7378;DHT22;3730;50.856;12.776;2023-04-03T22:52:51;3.40;21.50
7378;DHT22;3730;50.856;12.776;2023-04-03T22:55:17;3.40;22.20
7378;DHT22;3730;50.856;12.776;2023-04-03T22:57:46;3.30;20.00
7378;DHT22;3730;50.856;12.776;2023-04-03T23:00:13;3.40;22.80
7378;DHT22;3730;50.856;12.776;2023-04-03T23:02:40;3.40;23.10
7378;DHT22;3730;50.856;12.776;2023-04-03T23:05:07;3.30;23.60
7378;DHT22;3730;50.856;12.776;2023-04-03T23:07:33;3.20;23.50
7378;DHT22;3730;50.856;12.776;2023-04-03T23:09:58;3.40;23.80
7378;DHT22;3730;50.856;12.776;2023-04-03T23:14:51;3.30;24.70
7378;DHT22;3730;50.856;12.776;2023-04-03T23:17:16;3.50;25.20
7378;DHT22;3730;50.856;12.776;2023-04-03T23:19:42;3.90;25.30
7378;DHT22;3730;50.856;12.776;2023-04-03T23:22:08;3.60;25.30
7378;DHT22;3730;50.856;12.776;2023-04-03T23:24:33;3.30;25.10
7378;DHT22;3730;50.856;12.776;2023-04-03T23:26:59;3.60;25.90
7378;DHT22;3730;50.856;12.776;2023-04-03T23:29:25;3.50;26.10
7378;DHT22;3730;50.856;12.776;2023-04-03T23:31:52;3.30;26.40
7378;DHT22;3730;50.856;12.776;2023-04-03T23:36:43;3.40;27.30
7378;DHT22;3730;50.856;12.776;2023-04-03T23:39:09;3.40;27.70
7378;DHT22;3730;50.856;12.776;2023-04-03T23:41:35;3.30;28.20
7378;DHT22;3730;50.856;12.776;2023-04-03T23:44:01;3.30;29.20
7378;DHT22;3730;50.856;12.776;2023-04-03T23:46:26;3.40;30.10
7378;DHT22;3730;50.856;12.776;2023-04-03T23:48:52;3.20;31.20
7378;DHT22;3730;50.856;12.776;2023-04-03T23:51:17;3.20;32.00
7378;DHT22;3730;50.856;12.776;2023-04-03T23:56:09;3.20;32.70
7378;DHT22;3730;50.856;12.776;2023-04-03T23:58:37;3.40;33.50
